sensor_id;sensor_type;location;lat;lon;timestamp;P1;durP1;ratioP1;P2;durP2;ratioP2
1759;SDS011;877;46.266;20.062;2024-03-08T00:00:51;23.92;;;17.85;;
1759;SDS011;877;46.266;20.062;2024-03-08T00:03:17;29.80;;;19.03;;
1759;SDS011;877;46.266;20.062;2024-03-08T00:05:44;26.77;;;18.60;;
1759;SDS011;877;46.266;20.062;2024-03-08T00:08:10;40.33;;;21.83;;
1759;SDS011;877;46.266;20.062;2024-03-08T00:10:36;31.13;;;20.25;;
1759;SDS011;877;46.266;20.062;2024-03-08T00:13:04;28.67;;;20.05;;
1759;SDS011;877;46.266;20.062;2024-03-08T00:15:30;29.45;;;18.63;;
1759;SDS011;877;46.266;20.062;2024-03-08T00:17:57;42.15;;;25.23;;
1759;SDS011;877;46.266;20.062;2024-03-08T00:20:23;37.65;;;22.02;;
1759;SDS011;877;46.266;20.062;2024-03-08T00:22:49;35.50;;;22.33;;
1759;SDS011;877;46.266;20.062;2024-03-08T00:25:16;29.17;;;19.48;;
1759;SDS011;877;46.266;20.062;2024-03-08T00:27:43;28.05;;;18.70;;
1759;SDS011;877;46.266;20.062;2024-03-08T00:30:09;27.48;;;19.00;;
1759;SDS011;877;46.266;20.062;2024-03-08T00:32:38;28.88;;;19.42;;
1759;SDS011;877;46.266;20.062;2024-03-08T00:35:04;27.55;;;19.20;;
1759;SDS011;877;46.266;20.062;2024-03-08T00:37:33;28.92;;;19.45;;
1759;SDS011;877;46.266;20.062;2024-03-08T00:39:59;29.23;;;20.83;;
1759;SDS011;877;46.266;20.062;2024-03-08T00:42:25;26.67;;;20.02;;
1759;SDS011;877;46.266;20.062;2024-03-08T00:44:52;29.60;;;20.48;;
1759;SDS011;877;46.266;20.062;2024-03-08T00:47:18;29.40;;;18.85;;
1759;SDS011;877;46.266;20.062;2024-03-08T00:49:44;28.50;;;19.60;;
1759;SDS011;877;46.266;20.062;2024-03-08T00:52:11;28.45;;;20.52;;
1759;SDS011;877;46.266;20.062;2024-03-08T00:54:37;29.10;;;20.58;;
1759;SDS011;877;46.266;20.062;2024-03-08T00:57:03;28.58;;;19.75;;
1759;SDS011;877;46.266;20.062;2024-03-08T00:59:31;30.75;;;20.38;;
1759;SDS011;877;46.266;20.062;2024-03-08T01:01:58;32.15;;;20.30;;
1759;SDS011;877;46.266;20.062;2024-03-08T01:04:25;30.77;;;20.23;;
1759;SDS011;877;46.266;20.062;2024-03-08T01:06:56;30.30;;;20.60;;
1759;SDS011;877;46.266;20.062;2024-03-08T01:09:23;27.50;;;20.63;;
1759;SDS011;877;46.266;20.062;2024-03-08T01:11:49;30.60;;;22.10;;
1759;SDS011;877;46.266;20.062;2024-03-08T01:14:16;34.47;;;23.10;;
1759;SDS011;877;46.266;20.062;2024-03-08T01:16:43;33.33;;;21.75;;
1759;SDS011;877;46.266;20.062;2024-03-08T01:19:10;30.65;;;21.88;;
1759;SDS011;877;46.266;20.062;2024-03-08T01:21:36;31.13;;;22.20;;
1759;SDS011;877;46.266;20.062;2024-03-08T01:24:02;36.90;;;23.77;;
1759;SDS011;877;46.266;20.062;2024-03-08T01:26:28;33.33;;;23.50;;
1759;SDS011;877;46.266;20.062;2024-03-08T01:28:54;33.55;;;21.83;;
1759;SDS011;877;46.266;20.062;2024-03-08T01:31:20;35.20;;;23.45;;
1759;SDS011;877;46.266;20.062;2024-03-08T01:33:46;35.10;;;23.80;;
1759;SDS011;877;46.266;20.062;2024-03-08T01:36:12;35.90;;;24.50;;
1759;SDS011;877;46.266;20.062;2024-03-08T01:38:40;36.95;;;22.08;;
1759;SDS011;877;46.266;20.062;2024-03-08T01:41:06;40.13;;;25.60;;
1759;SDS011;877;46.266;20.062;2024-03-08T01:43:34;34.60;;;23.30;;
1759;SDS011;877;46.266;20.062;2024-03-08T01:46:00;30.40;;;20.65;;
1759;SDS011;877;46.266;20.062;2024-03-08T01:48:27;33.35;;;22.40;;
1759;SDS011;877;46.266;20.062;2024-03-08T01:50:55;29.88;;;20.08;;
1759;SDS011;877;46.266;20.062;2024-03-08T01:53:21;29.10;;;19.73;;
1759;SDS011;877;46.266;20.062;2024-03-08T01:55:48;26.70;;;19.67;;
1759;SDS011;877;46.266;20.062;2024-03-08T01:58:14;29.13;;;20.45;;
1759;SDS011;877;46.266;20.062;2024-03-08T02:00:44;27.42;;;20.40;;
1759;SDS011;877;46.266;20.062;2024-03-08T02:03:14;27.45;;;20.13;;
1759;SDS011;877;46.266;20.062;2024-03-08T02:05:40;28.65;;;20.42;;
1759;SDS011;877;46.266;20.062;2024-03-08T02:08:07;27.77;;;20.38;;
1759;SDS011;877;46.266;20.062;2024-03-08T02:10:38;27.67;;;19.33;;
1759;SDS011;877;46.266;20.062;2024-03-08T02:13:04;26.75;;;20.23;;
1759;SDS011;877;46.266;20.062;2024-03-08T02:18:15;28.13;;;19.60;;
1759;SDS011;877;46.266;20.062;2024-03-08T02:20:42;27.27;;;19.77;;
1759;SDS011;877;46.266;20.062;2024-03-08T02:23:08;30.77;;;20.17;;
1759;SDS011;877;46.266;20.062;2024-03-08T02:25:35;28.48;;;19.75;;
1759;SDS011;877;46.266;20.062;2024-03-08T02:28:01;29.38;;;19.40;;
1759;SDS011;877;46.266;20.062;2024-03-08T02:30:27;29.73;;;20.67;;
1759;SDS011;877;46.266;20.062;2024-03-08T02:32:55;36.85;;;19.70;;
1759;SDS011;877;46.266;20.062;2024-03-08T02:35:21;26.05;;;18.73;;
1759;SDS011;877;46.266;20.062;2024-03-08T02:37:47;28.35;;;19.67;;
1759;SDS011;877;46.266;20.062;2024-03-08T02:40:13;27.07;;;18.90;;
1759;SDS011;877;46.266;20.062;2024-03-08T02:42:39;29.48;;;19.38;;
1759;SDS011;877;46.266;20.062;2024-03-08T02:45:06;29.08;;;19.52;;
1759;SDS011;877;46.266;20.062;2024-03-08T02:47:35;26.70;;;17.73;;
1759;SDS011;877;46.266;20.062;2024-03-08T02:50:02;27.17;;;19.90;;
1759;SDS011;877;46.266;20.062;2024-03-08T02:52:28;27.25;;;19.25;;
1759;SDS011;877;46.266;20.062;2024-03-08T02:54:55;25.63;;;18.00;;
1759;SDS011;877;46.266;20.062;2024-03-08T02:57:22;26.80;;;17.80;;
1759;SDS011;877;46.266;20.062;2024-03-08T02:59:48;28.48;;;17.90;;
1759;SDS011;877;46.266;20.062;2024-03-08T03:02:14;29.50;;;19.65;;
1759;SDS011;877;46.266;20.062;2024-03-08T03:04:41;33.35;;;18.63;;
1759;SDS011;877;46.266;20.062;2024-03-08T03:07:08;29.20;;;18.50;;
1759;SDS011;877;46.266;20.062;2024-03-08T03:09:34;26.10;;;15.88;;
1759;SDS011;877;46.266;20.062;2024-03-08T03:12:00;31.50;;;17.77;;
1759;SDS011;877;46.266;20.062;2024-03-08T03:14:27;28.50;;;18.85;;
1759;SDS011;877;46.266;20.062;2024-03-08T03:16:54;33.95;;;20.30;;
1759;SDS011;877;46.266;20.062;2024-03-08T03:19:20;31.85;;;19.73;;
1759;SDS011;877;46.266;20.062;2024-03-08T03:21:46;30.65;;;21.85;;
1759;SDS011;877;46.266;20.062;2024-03-08T03:24:12;30.40;;;18.52;;
1759;SDS011;877;46.266;20.062;2024-03-08T03:26:41;36.00;;;22.10;;
1759;SDS011;877;46.266;20.062;2024-03-08T03:29:08;32.90;;;20.73;;
1759;SDS011;877;46.266;20.062;2024-03-08T03:31:36;30.55;;;20.30;;
1759;SDS011;877;46.266;20.062;2024-03-08T03:34:02;33.92;;;21.50;;
1759;SDS011;877;46.266;20.062;2024-03-08T03:36:29;24.00;;;16.98;;
1759;SDS011;877;46.266;20.062;2024-03-08T03:38:56;31.95;;;20.85;;
1759;SDS011;877;46.266;20.062;2024-03-08T03:41:33;35.53;;;21.20;;
1759;SDS011;877;46.266;20.062;2024-03-08T03:43:59;35.25;;;21.85;;
1759;SDS011;877;46.266;20.062;2024-03-08T03:46:25;33.90;;;22.25;;
1759;SDS011;877;46.266;20.062;2024-03-08T03:48:52;33.28;;;21.55;;
1759;SDS011;877;46.266;20.062;2024-03-08T03:51:18;33.28;;;21.58;;
1759;SDS011;877;46.266;20.062;2024-03-08T03:53:46;29.77;;;20.80;;
1759;SDS011;877;46.266;20.062;2024-03-08T03:56:12;32.55;;;20.58;;
1759;SDS011;877;46.266;20.062;2024-03-08T03:58:38;35.05;;;21.88;;
1759;SDS011;877;46.266;20.062;2024-03-08T04:01:05;32.25;;;21.92;;
1759;SDS011;877;46.266;20.062;2024-03-08T04:03:31;34.95;;;21.90;;
1759;SDS011;877;46.266;20.062;2024-03-08T04:05:57;38.58;;;24.52;;
1759;SDS011;877;46.266;20.062;2024-03-08T04:08:23;33.65;;;22.08;;
1759;SDS011;877;46.266;20.062;2024-03-08T04:10:50;35.65;;;22.55;;
1759;SDS011;877;46.266;20.062;2024-03-08T04:13:16;33.25;;;20.10;;
1759;SDS011;877;46.266;20.062;2024-03-08T04:15:42;34.38;;;21.50;;
1759;SDS011;877;46.266;20.062;2024-03-08T04:18:13;31.40;;;21.52;;
1759;SDS011;877;46.266;20.062;2024-03-08T04:20:39;32.70;;;20.92;;
1759;SDS011;877;46.266;20.062;2024-03-08T04:23:06;33.90;;;22.67;;
1759;SDS011;877;46.266;20.062;2024-03-08T04:25:32;40.25;;;19.75;;
1759;SDS011;877;46.266;20.062;2024-03-08T04:27:58;34.33;;;21.17;;
1759;SDS011;877;46.266;20.062;2024-03-08T04:30:25;31.30;;;20.42;;
1759;SDS011;877;46.266;20.062;2024-03-08T04:32:53;32.40;;;21.15;;
1759;SDS011;877;46.266;20.062;2024-03-08T04:35:19;34.28;;;20.73;;
1759;SDS011;877;46.266;20.062;2024-03-08T04:37:45;35.40;;;20.60;;
1759;SDS011;877;46.266;20.062;2024-03-08T04:40:12;35.45;;;22.58;;
1759;SDS011;877;46.266;20.062;2024-03-08T04:42:38;36.08;;;22.38;;
1759;SDS011;877;46.266;20.062;2024-03-08T04:45:05;32.13;;;19.90;;
1759;SDS011;877;46.266;20.062;2024-03-08T04:47:33;34.45;;;20.73;;
1759;SDS011;877;46.266;20.062;2024-03-08T04:50:02;36.45;;;22.33;;
1759;SDS011;877;46.266;20.062;2024-03-08T04:52:29;37.13;;;21.02;;
1759;SDS011;877;46.266;20.062;2024-03-08T04:54:55;33.10;;;20.20;;
1759;SDS011;877;46.266;20.062;2024-03-08T04:57:21;33.50;;;20.98;;
1759;SDS011;877;46.266;20.062;2024-03-08T04:59:49;33.80;;;20.33;;
1759;SDS011;877;46.266;20.062;2024-03-08T05:02:16;35.20;;;22.08;;
1759;SDS011;877;46.266;20.062;2024-03-08T05:04:43;36.28;;;21.20;;
1759;SDS011;877;46.266;20.062;2024-03-08T05:07:09;37.95;;;20.95;;
1759;SDS011;877;46.266;20.062;2024-03-08T05:09:35;41.83;;;22.42;;
1759;SDS011;877;46.266;20.062;2024-03-08T05:12:02;36.30;;;20.88;;
1759;SDS011;877;46.266;20.062;2024-03-08T05:14:28;35.10;;;21.27;;
1759;SDS011;877;46.266;20.062;2024-03-08T05:16:54;31.40;;;20.80;;
1759;SDS011;877;46.266;20.062;2024-03-08T05:19:20;35.10;;;21.00;;
1759;SDS011;877;46.266;20.062;2024-03-08T05:21:47;36.80;;;20.85;;
1759;SDS011;877;46.266;20.062;2024-03-08T05:24:13;35.40;;;21.23;;
1759;SDS011;877;46.266;20.062;2024-03-08T05:26:40;40.17;;;22.77;;
1759;SDS011;877;46.266;20.062;2024-03-08T05:29:07;34.95;;;21.30;;
1759;SDS011;877;46.266;20.062;2024-03-08T05:31:47;34.85;;;21.35;;
1759;SDS011;877;46.266;20.062;2024-03-08T05:34:14;32.95;;;19.17;;
1759;SDS011;877;46.266;20.062;2024-03-08T05:36:43;33.13;;;21.83;;
1759;SDS011;877;46.266;20.062;2024-03-08T05:39:10;38.67;;;22.75;;
1759;SDS011;877;46.266;20.062;2024-03-08T05:41:37;33.20;;;22.00;;
1759;SDS011;877;46.266;20.062;2024-03-08T05:44:05;36.42;;;21.00;;
1759;SDS011;877;46.266;20.062;2024-03-08T05:46:32;34.45;;;20.52;;
1759;SDS011;877;46.266;20.062;2024-03-08T05:48:58;38.90;;;22.13;;
1759;SDS011;877;46.266;20.062;2024-03-08T05:51:25;36.38;;;21.95;;
1759;SDS011;877;46.266;20.062;2024-03-08T05:53:52;40.42;;;21.45;;
1759;SDS011;877;46.266;20.062;2024-03-08T05:56:22;35.95;;;22.00;;
1759;SDS011;877;46.266;20.062;2024-03-08T05:58:49;42.78;;;22.83;;
1759;SDS011;877;46.266;20.062;2024-03-08T06:01:15;36.20;;;20.95;;
1759;SDS011;877;46.266;20.062;2024-03-08T06:03:41;36.75;;;23.95;;
1759;SDS011;877;46.266;20.062;2024-03-08T06:06:13;37.55;;;22.45;;
1759;SDS011;877;46.266;20.062;2024-03-08T06:08:40;42.05;;;24.92;;
1759;SDS011;877;46.266;20.062;2024-03-08T06:11:08;36.63;;;19.38;;
1759;SDS011;877;46.266;20.062;2024-03-08T06:13:34;38.95;;;21.85;;
1759;SDS011;877;46.266;20.062;2024-03-08T06:16:01;40.75;;;22.13;;
1759;SDS011;877;46.266;20.062;2024-03-08T06:18:30;40.30;;;21.55;;
1759;SDS011;877;46.266;20.062;2024-03-08T06:20:56;36.33;;;19.55;;
1759;SDS011;877;46.266;20.062;2024-03-08T06:23:23;36.38;;;21.67;;
1759;SDS011;877;46.266;20.062;2024-03-08T06:25:49;31.08;;;19.77;;
1759;SDS011;877;46.266;20.062;2024-03-08T06:28:15;40.25;;;22.30;;
1759;SDS011;877;46.266;20.062;2024-03-08T06:30:42;35.75;;;22.13;;
1759;SDS011;877;46.266;20.062;2024-03-08T06:33:08;37.42;;;21.80;;
1759;SDS011;877;46.266;20.062;2024-03-08T06:35:35;34.55;;;20.15;;
1759;SDS011;877;46.266;20.062;2024-03-08T06:38:03;32.42;;;21.17;;
1759;SDS011;877;46.266;20.062;2024-03-08T06:40:29;35.60;;;22.58;;
1759;SDS011;877;46.266;20.062;2024-03-08T06:42:56;36.45;;;22.75;;
1759;SDS011;877;46.266;20.062;2024-03-08T06:45:22;36.20;;;20.33;;
1759;SDS011;877;46.266;20.062;2024-03-08T06:47:49;35.00;;;20.98;;
1759;SDS011;877;46.266;20.062;2024-03-08T06:50:15;36.67;;;22.98;;
1759;SDS011;877;46.266;20.062;2024-03-08T06:52:41;33.58;;;21.33;;
1759;SDS011;877;46.266;20.062;2024-03-08T06:55:08;36.90;;;20.70;;
1759;SDS011;877;46.266;20.062;2024-03-08T06:57:40;39.42;;;22.30;;
1759;SDS011;877;46.266;20.062;2024-03-08T07:00:07;34.80;;;21.02;;
1759;SDS011;877;46.266;20.062;2024-03-08T07:02:40;37.35;;;22.42;;
1759;SDS011;877;46.266;20.062;2024-03-08T07:05:07;48.08;;;31.73;;
1759;SDS011;877;46.266;20.062;2024-03-08T07:07:35;57.45;;;37.60;;
1759;SDS011;877;46.266;20.062;2024-03-08T07:10:02;175.85;;;93.63;;
1759;SDS011;877;46.266;20.062;2024-03-08T07:12:28;83.15;;;44.40;;
1759;SDS011;877;46.266;20.062;2024-03-08T07:14:54;79.80;;;44.97;;
1759;SDS011;877;46.266;20.062;2024-03-08T07:17:20;200.48;;;116.45;;
1759;SDS011;877;46.266;20.062;2024-03-08T07:19:47;165.98;;;88.68;;
1759;SDS011;877;46.266;20.062;2024-03-08T07:22:14;102.30;;;50.90;;
1759;SDS011;877;46.266;20.062;2024-03-08T07:24:40;72.60;;;36.70;;
1759;SDS011;877;46.266;20.062;2024-03-08T07:27:26;135.48;;;84.07;;
1759;SDS011;877;46.266;20.062;2024-03-08T07:29:54;153.93;;;78.72;;
1759;SDS011;877;46.266;20.062;2024-03-08T07:32:21;67.30;;;34.20;;
1759;SDS011;877;46.266;20.062;2024-03-08T07:34:48;87.68;;;45.38;;
1759;SDS011;877;46.266;20.062;2024-03-08T07:37:18;212.75;;;116.32;;
1759;SDS011;877;46.266;20.062;2024-03-08T07:39:45;75.50;;;42.83;;
1759;SDS011;877;46.266;20.062;2024-03-08T07:42:11;250.05;;;154.13;;
1759;SDS011;877;46.266;20.062;2024-03-08T07:44:38;72.72;;;41.80;;
1759;SDS011;877;46.266;20.062;2024-03-08T07:47:05;146.20;;;86.68;;
1759;SDS011;877;46.266;20.062;2024-03-08T07:49:34;59.00;;;36.33;;
1759;SDS011;877;46.266;20.062;2024-03-08T07:52:02;89.18;;;58.55;;
1759;SDS011;877;46.266;20.062;2024-03-08T07:54:29;60.20;;;36.20;;
1759;SDS011;877;46.266;20.062;2024-03-08T07:56:55;65.60;;;39.30;;
1759;SDS011;877;46.266;20.062;2024-03-08T07:59:21;63.22;;;35.85;;
1759;SDS011;877;46.266;20.062;2024-03-08T08:01:47;94.53;;;71.97;;
1759;SDS011;877;46.266;20.062;2024-03-08T08:04:13;67.68;;;44.00;;
1759;SDS011;877;46.266;20.062;2024-03-08T08:06:43;47.83;;;30.50;;
1759;SDS011;877;46.266;20.062;2024-03-08T08:09:09;73.95;;;53.83;;
1759;SDS011;877;46.266;20.062;2024-03-08T08:11:40;80.15;;;55.05;;
1759;SDS011;877;46.266;20.062;2024-03-08T08:14:09;198.07;;;150.75;;
1759;SDS011;877;46.266;20.062;2024-03-08T08:16:35;51.97;;;35.40;;
1759;SDS011;877;46.266;20.062;2024-03-08T08:19:07;57.97;;;35.60;;
1759;SDS011;877;46.266;20.062;2024-03-08T08:21:34;60.13;;;38.13;;
1759;SDS011;877;46.266;20.062;2024-03-08T08:24:03;147.15;;;100.38;;
1759;SDS011;877;46.266;20.062;2024-03-08T08:26:29;56.47;;;36.95;;
1759;SDS011;877;46.266;20.062;2024-03-08T08:28:55;56.35;;;38.10;;
1759;SDS011;877;46.266;20.062;2024-03-08T08:31:21;46.85;;;31.90;;
1759;SDS011;877;46.266;20.062;2024-03-08T08:33:47;87.43;;;60.30;;
1759;SDS011;877;46.266;20.062;2024-03-08T08:36:14;44.78;;;32.70;;
1759;SDS011;877;46.266;20.062;2024-03-08T08:38:40;69.22;;;44.67;;
1759;SDS011;877;46.266;20.062;2024-03-08T08:41:09;56.63;;;38.00;;
1759;SDS011;877;46.266;20.062;2024-03-08T08:43:36;39.72;;;27.23;;
1759;SDS011;877;46.266;20.062;2024-03-08T08:46:04;40.88;;;26.95;;
1759;SDS011;877;46.266;20.062;2024-03-08T08:48:30;91.68;;;58.85;;
1759;SDS011;877;46.266;20.062;2024-03-08T08:50:56;130.25;;;82.32;;
1759;SDS011;877;46.266;20.062;2024-03-08T08:53:22;74.50;;;46.92;;
1759;SDS011;877;46.266;20.062;2024-03-08T08:55:49;103.53;;;63.42;;
1759;SDS011;877;46.266;20.062;2024-03-08T08:58:15;126.07;;;74.72;;
1759;SDS011;877;46.266;20.062;2024-03-08T09:00:41;39.53;;;24.90;;
1759;SDS011;877;46.266;20.062;2024-03-08T09:03:09;39.03;;;23.55;;
1759;SDS011;877;46.266;20.062;2024-03-08T09:05:36;92.45;;;72.13;;
1759;SDS011;877;46.266;20.062;2024-03-08T09:08:03;43.25;;;25.88;;
1759;SDS011;877;46.266;20.062;2024-03-08T09:10:29;51.75;;;30.08;;
1759;SDS011;877;46.266;20.062;2024-03-08T09:12:55;50.33;;;32.40;;
1759;SDS011;877;46.266;20.062;2024-03-08T09:15:21;66.78;;;49.97;;
1759;SDS011;877;46.266;20.062;2024-03-08T09:17:47;112.40;;;82.55;;
1759;SDS011;877;46.266;20.062;2024-03-08T09:20:15;138.45;;;92.85;;
1759;SDS011;877;46.266;20.062;2024-03-08T09:22:45;95.35;;;59.63;;
1759;SDS011;877;46.266;20.062;2024-03-08T09:25:11;84.65;;;59.75;;
1759;SDS011;877;46.266;20.062;2024-03-08T09:27:37;294.08;;;194.27;;
1759;SDS011;877;46.266;20.062;2024-03-08T09:30:05;160.95;;;91.18;;
1759;SDS011;877;46.266;20.062;2024-03-08T09:32:32;92.68;;;58.10;;
1759;SDS011;877;46.266;20.062;2024-03-08T09:34:58;181.23;;;117.05;;
1759;SDS011;877;46.266;20.062;2024-03-08T09:37:26;59.92;;;39.70;;
1759;SDS011;877;46.266;20.062;2024-03-08T09:39:52;120.97;;;55.92;;
1759;SDS011;877;46.266;20.062;2024-03-08T09:42:18;329.85;;;162.57;;
1759;SDS011;877;46.266;20.062;2024-03-08T09:44:45;289.33;;;175.88;;
1759;SDS011;877;46.266;20.062;2024-03-08T09:47:14;221.63;;;152.65;;
1759;SDS011;877;46.266;20.062;2024-03-08T09:49:40;311.85;;;215.63;;
1759;SDS011;877;46.266;20.062;2024-03-08T09:52:08;251.70;;;166.95;;
1759;SDS011;877;46.266;20.062;2024-03-08T09:54:35;95.95;;;71.90;;
1759;SDS011;877;46.266;20.062;2024-03-08T09:57:03;61.95;;;50.60;;
1759;SDS011;877;46.266;20.062;2024-03-08T09:59:30;136.23;;;106.97;;
1759;SDS011;877;46.266;20.062;2024-03-08T10:02:02;121.65;;;98.40;;
1759;SDS011;877;46.266;20.062;2024-03-08T10:04:28;97.70;;;71.15;;
1759;SDS011;877;46.266;20.062;2024-03-08T10:07:00;65.72;;;45.42;;
1759;SDS011;877;46.266;20.062;2024-03-08T10:09:26;64.72;;;50.97;;
1759;SDS011;877;46.266;20.062;2024-03-08T10:11:56;44.63;;;26.23;;
1759;SDS011;877;46.266;20.062;2024-03-08T10:14:25;80.35;;;66.63;;
1759;SDS011;877;46.266;20.062;2024-03-08T10:16:52;64.50;;;45.00;;
1759;SDS011;877;46.266;20.062;2024-03-08T10:19:18;45.53;;;29.30;;
1759;SDS011;877;46.266;20.062;2024-03-08T10:21:50;51.13;;;32.63;;
1759;SDS011;877;46.266;20.062;2024-03-08T10:24:22;43.45;;;29.23;;
1759;SDS011;877;46.266;20.062;2024-03-08T10:26:51;46.10;;;30.40;;
1759;SDS011;877;46.266;20.062;2024-03-08T10:29:18;44.70;;;30.08;;
1759;SDS011;877;46.266;20.062;2024-03-08T10:31:45;46.80;;;29.05;;
1759;SDS011;877;46.266;20.062;2024-03-08T10:34:11;53.05;;;34.97;;
1759;SDS011;877;46.266;20.062;2024-03-08T10:36:37;49.97;;;32.38;;
1759;SDS011;877;46.266;20.062;2024-03-08T10:41:44;43.67;;;31.02;;
1759;SDS011;877;46.266;20.062;2024-03-08T10:44:17;638.88;;;361.65;;
1759;SDS011;877;46.266;20.062;2024-03-08T10:49:16;77.13;;;48.13;;
1759;SDS011;877;46.266;20.062;2024-03-08T10:51:43;42.00;;;26.65;;
1759;SDS011;877;46.266;20.062;2024-03-08T10:54:12;57.43;;;35.40;;
1759;SDS011;877;46.266;20.062;2024-03-08T10:56:38;98.97;;;65.18;;
1759;SDS011;877;46.266;20.062;2024-03-08T10:59:05;218.13;;;148.25;;
1759;SDS011;877;46.266;20.062;2024-03-08T11:01:31;71.05;;;47.00;;
1759;SDS011;877;46.266;20.062;2024-03-08T11:03:57;71.45;;;50.20;;
1759;SDS011;877;46.266;20.062;2024-03-08T11:06:29;163.23;;;110.47;;
1759;SDS011;877;46.266;20.062;2024-03-08T11:08:58;85.40;;;56.63;;
1759;SDS011;877;46.266;20.062;2024-03-08T11:11:28;94.10;;;67.50;;
1759;SDS011;877;46.266;20.062;2024-03-08T11:13:58;85.18;;;68.85;;
1759;SDS011;877;46.266;20.062;2024-03-08T11:19:38;51.28;;;28.52;;
1759;SDS011;877;46.266;20.062;2024-03-08T11:21:40;79.05;;;45.03;;
1759;SDS011;877;46.266;20.062;2024-03-08T11:24:12;56.28;;;41.45;;
1759;SDS011;877;46.266;20.062;2024-03-08T11:26:39;51.67;;;32.08;;
1759;SDS011;877;46.266;20.062;2024-03-08T11:31:50;58.88;;;37.63;;
1759;SDS011;877;46.266;20.062;2024-03-08T11:34:16;53.65;;;38.38;;
1759;SDS011;877;46.266;20.062;2024-03-08T11:36:44;74.97;;;45.53;;
1759;SDS011;877;46.266;20.062;2024-03-08T11:39:13;78.15;;;57.50;;
1759;SDS011;877;46.266;20.062;2024-03-08T11:41:39;55.03;;;41.90;;
1759;SDS011;877;46.266;20.062;2024-03-08T11:44:07;62.15;;;47.38;;
1759;SDS011;877;46.266;20.062;2024-03-08T11:46:35;58.95;;;38.13;;
1759;SDS011;877;46.266;20.062;2024-03-08T11:49:01;60.05;;;44.17;;
1759;SDS011;877;46.266;20.062;2024-03-08T11:51:28;62.75;;;48.30;;
1759;SDS011;877;46.266;20.062;2024-03-08T11:53:55;55.40;;;38.85;;
1759;SDS011;877;46.266;20.062;2024-03-08T11:56:21;100.40;;;81.65;;
1759;SDS011;877;46.266;20.062;2024-03-08T11:58:54;59.80;;;37.47;;
1759;SDS011;877;46.266;20.062;2024-03-08T12:01:23;72.68;;;44.13;;
1759;SDS011;877;46.266;20.062;2024-03-08T12:03:53;59.10;;;39.78;;
1759;SDS011;877;46.266;20.062;2024-03-08T12:06:20;77.80;;;54.42;;
1759;SDS011;877;46.266;20.062;2024-03-08T12:08:46;63.07;;;36.87;;
1759;SDS011;877;46.266;20.062;2024-03-08T12:11:16;64.38;;;50.85;;
1759;SDS011;877;46.266;20.062;2024-03-08T12:13:48;53.00;;;36.13;;
1759;SDS011;877;46.266;20.062;2024-03-08T12:16:19;41.07;;;30.20;;
1759;SDS011;877;46.266;20.062;2024-03-08T12:18:48;57.70;;;38.75;;
1759;SDS011;877;46.266;20.062;2024-03-08T12:21:16;54.67;;;45.88;;
1759;SDS011;877;46.266;20.062;2024-03-08T12:23:48;43.67;;;30.70;;
1759;SDS011;877;46.266;20.062;2024-03-08T12:26:28;55.47;;;36.97;;
1759;SDS011;877;46.266;20.062;2024-03-08T12:28:56;46.43;;;26.43;;
1759;SDS011;877;46.266;20.062;2024-03-08T12:31:41;40.03;;;28.42;;
1759;SDS011;877;46.266;20.062;2024-03-08T12:34:08;38.65;;;23.58;;
1759;SDS011;877;46.266;20.062;2024-03-08T12:36:35;37.67;;;25.37;;
1759;SDS011;877;46.266;20.062;2024-03-08T12:39:01;39.70;;;24.30;;
1759;SDS011;877;46.266;20.062;2024-03-08T12:41:30;42.33;;;25.73;;
1759;SDS011;877;46.266;20.062;2024-03-08T12:43:57;41.05;;;23.10;;
1759;SDS011;877;46.266;20.062;2024-03-08T12:46:23;37.63;;;25.63;;
1759;SDS011;877;46.266;20.062;2024-03-08T12:48:55;41.80;;;25.80;;
1759;SDS011;877;46.266;20.062;2024-03-08T12:51:21;311.77;;;162.77;;
1759;SDS011;877;46.266;20.062;2024-03-08T12:53:47;382.10;;;201.03;;
1759;SDS011;877;46.266;20.062;2024-03-08T12:56:31;67.20;;;38.80;;
1759;SDS011;877;46.266;20.062;2024-03-08T12:59:01;114.10;;;56.20;;
1759;SDS011;877;46.266;20.062;2024-03-08T13:01:29;378.90;;;187.43;;
1759;SDS011;877;46.266;20.062;2024-03-08T13:03:57;231.37;;;119.50;;
1759;SDS011;877;46.266;20.062;2024-03-08T13:06:24;74.30;;;42.67;;
1759;SDS011;877;46.266;20.062;2024-03-08T13:08:50;418.27;;;216.88;;
1759;SDS011;877;46.266;20.062;2024-03-08T13:11:17;83.00;;;52.93;;
1759;SDS011;877;46.266;20.062;2024-03-08T13:13:44;98.63;;;73.80;;
1759;SDS011;877;46.266;20.062;2024-03-08T13:16:10;85.22;;;54.08;;
1759;SDS011;877;46.266;20.062;2024-03-08T13:18:39;154.45;;;117.25;;
1759;SDS011;877;46.266;20.062;2024-03-08T13:21:07;133.73;;;79.88;;
1759;SDS011;877;46.266;20.062;2024-03-08T13:23:34;339.33;;;261.40;;
1759;SDS011;877;46.266;20.062;2024-03-08T13:26:11;67.45;;;49.47;;
1759;SDS011;877;46.266;20.062;2024-03-08T13:28:41;70.20;;;46.47;;
1759;SDS011;877;46.266;20.062;2024-03-08T13:31:07;188.20;;;123.23;;
1759;SDS011;877;46.266;20.062;2024-03-08T13:33:35;379.30;;;256.90;;
1759;SDS011;877;46.266;20.062;2024-03-08T13:36:02;111.57;;;59.63;;
1759;SDS011;877;46.266;20.062;2024-03-08T13:38:31;332.07;;;149.30;;
1759;SDS011;877;46.266;20.062;2024-03-08T13:40:58;296.03;;;125.27;;
1759;SDS011;877;46.266;20.062;2024-03-08T13:43:24;206.20;;;85.17;;
1759;SDS011;877;46.266;20.062;2024-03-08T13:45:54;510.17;;;238.10;;
1759;SDS011;877;46.266;20.062;2024-03-08T13:48:21;214.77;;;98.80;;
1759;SDS011;877;46.266;20.062;2024-03-08T13:50:47;250.50;;;146.40;;
1759;SDS011;877;46.266;20.062;2024-03-08T13:53:15;73.50;;;49.33;;
1759;SDS011;877;46.266;20.062;2024-03-08T13:55:41;87.87;;;60.17;;
1759;SDS011;877;46.266;20.062;2024-03-08T13:58:07;202.67;;;145.77;;
1759;SDS011;877;46.266;20.062;2024-03-08T14:00:37;139.63;;;115.87;;
1759;SDS011;877;46.266;20.062;2024-03-08T14:03:03;81.93;;;68.63;;
1759;SDS011;877;46.266;20.062;2024-03-08T14:05:35;46.57;;;35.37;;
1759;SDS011;877;46.266;20.062;2024-03-08T14:08:03;44.27;;;32.00;;
1759;SDS011;877;46.266;20.062;2024-03-08T14:10:32;47.37;;;32.63;;
1759;SDS011;877;46.266;20.062;2024-03-08T14:12:59;35.47;;;26.27;;
1759;SDS011;877;46.266;20.062;2024-03-08T14:15:26;65.17;;;44.67;;
1759;SDS011;877;46.266;20.062;2024-03-08T14:17:52;129.67;;;82.43;;
1759;SDS011;877;46.266;20.062;2024-03-08T14:20:18;54.73;;;36.73;;
1759;SDS011;877;46.266;20.062;2024-03-08T14:22:44;67.60;;;40.80;;
1759;SDS011;877;46.266;20.062;2024-03-08T14:25:11;74.60;;;51.67;;
1759;SDS011;877;46.266;20.062;2024-03-08T14:27:43;39.77;;;23.40;;
1759;SDS011;877;46.266;20.062;2024-03-08T14:30:09;46.67;;;32.47;;
1759;SDS011;877;46.266;20.062;2024-03-08T14:32:36;34.97;;;23.50;;
1759;SDS011;877;46.266;20.062;2024-03-08T14:35:06;174.83;;;99.87;;
1759;SDS011;877;46.266;20.062;2024-03-08T14:37:33;376.07;;;182.87;;
1759;SDS011;877;46.266;20.062;2024-03-08T14:39:59;643.20;;;344.07;;
1759;SDS011;877;46.266;20.062;2024-03-08T14:42:25;732.10;;;390.67;;
1759;SDS011;877;46.266;20.062;2024-03-08T14:44:51;481.07;;;252.67;;
1759;SDS011;877;46.266;20.062;2024-03-08T14:47:19;162.10;;;77.37;;
1759;SDS011;877;46.266;20.062;2024-03-08T14:49:47;508.43;;;305.10;;
1759;SDS011;877;46.266;20.062;2024-03-08T14:52:14;394.00;;;222.23;;
1759;SDS011;877;46.266;20.062;2024-03-08T14:54:55;420.10;;;266.03;;
1759;SDS011;877;46.266;20.062;2024-03-08T14:57:21;150.30;;;84.93;;